Time;durP1;ratioP1;P1;durP2;ratioP2;P2;SDS_P1;SDS_P2;PMS_P1;PMS_P2;Temp;Humidity;BMP_temperature;BMP_pressure;BME280_temperature;BME280_humidity;BME280_pressure;Samples;Min_cycle;Max_cycle;Signal;HPM_P1;HPM_P2
2022/03/07 00:00:32;;;;;;;4.80;4.40;;;0.30;99.90;;;;;;5084168;28;20187;-72
2022/03/07 00:02:57;;;;;;;5.07;4.53;;;0.30;99.90;;;;;;5083449;28;20226;-73
2022/03/07 00:05:23;;;;;;;5.17;4.47;;;0.20;99.90;;;;;;5083252;28;20189;-73
2022/03/07 00:07:49;;;;;;;6.60;4.00;;;0.10;99.90;;;;;;5082480;28;20672;-73
2022/03/07 00:10:14;;;;;;;4.90;4.50;;;0.20;99.90;;;;;;5085244;28;20186;-73
2022/03/07 00:12:40;;;;;;;4.83;4.37;;;0.10;99.90;;;;;;5081455;28;20210;-72
2022/03/07 00:15:06;;;;;;;7.03;4.73;;;0.10;99.90;;;;;;5088678;28;20675;-72
2022/03/07 00:17:31;;;;;;;5.37;4.90;;;0.10;99.90;;;;;;5084652;28;20304;-72
2022/03/07 00:19:57;;;;;;;6.83;4.73;;;0.10;99.90;;;;;;5087706;28;20179;-72
2022/03/07 00:22:23;;;;;;;4.80;4.40;;;0.10;99.90;;;;;;5087420;28;20215;-72
2022/03/07 00:24:48;;;;;;;6.27;4.50;;;0.10;99.90;;;;;;5086514;28;20266;-71
2022/03/07 00:27:14;;;;;;;5.63;4.37;;;0.10;99.90;;;;;;5084995;28;20186;-72
2022/03/07 00:29:39;;;;;;;5.10;4.60;;;0.10;99.90;;;;;;5084461;28;20182;-72
2022/03/07 00:32:05;;;;;;;4.87;4.47;;;0.20;99.90;;;;;;5081414;28;20230;-72
2022/03/07 00:34:31;;;;;;;5.00;4.47;;;0.10;99.90;;;;;;5088634;28;20210;-72
2022/03/07 00:36:57;;;;;;;4.13;3.83;;;0.10;99.90;;;;;;5088215;28;20179;-72
2022/03/07 00:39:22;;;;;;;4.90;4.50;;;0.00;99.90;;;;;;5091316;28;20224;-72
2022/03/07 00:41:48;;;;;;;4.47;4.07;;;0.00;99.90;;;;;;5089064;28;20204;-71
2022/03/07 00:44:13;;;;;;;4.67;4.37;;;0.10;99.90;;;;;;5089254;28;20170;-72
2022/03/07 00:46:39;;;;;;;4.83;4.43;;;0.00;99.90;;;;;;5089530;28;20548;-72
2022/03/07 00:49:05;;;;;;;5.33;4.83;;;0.00;99.90;;;;;;5090538;28;20190;-72
2022/03/07 00:51:30;;;;;;;4.60;4.20;;;0.00;99.90;;;;;;5088313;28;20541;-73
2022/03/07 00:53:56;;;;;;;4.63;4.13;;;-0.10;99.90;;;;;;5086898;28;20220;-72
2022/03/07 00:56:22;;;;;;;5.17;4.40;;;-0.10;99.90;;;;;;5084001;28;20217;-72
2022/03/07 00:58:47;;;;;;;4.43;3.90;;;-0.10;99.90;;;;;;5086541;28;20175;-74
2022/03/07 01:01:13;;;;;;;4.80;4.40;;;-0.10;99.90;;;;;;5086792;28;20262;-73
2022/03/07 01:03:39;;;;;;;5.50;4.57;;;0.00;99.90;;;;;;5088552;28;20615;-72
2022/03/07 01:06:05;;;;;;;4.80;4.33;;;0.00;99.90;;;;;;5091548;28;20199;-72
2022/03/07 01:08:30;;;;;;;4.43;4.10;;;0.00;99.90;;;;;;5085888;28;20248;-73
2022/03/07 01:10:56;;;;;;;5.13;4.73;;;-0.10;99.90;;;;;;5090109;28;20193;-73
2022/03/07 01:13:22;;;;;;;4.77;4.37;;;-0.10;99.90;;;;;;5086162;28;20550;-72
2022/03/07 01:15:48;;;;;;;4.57;4.17;;;-0.10;99.90;;;;;;5090519;28;20214;-71
2022/03/07 01:18:14;;;;;;;4.60;4.17;;;-0.10;99.90;;;;;;5084672;28;20671;-73
2022/03/07 01:20:39;;;;;;;6.73;4.37;;;0.00;99.90;;;;;;5087349;28;20665;-73
2022/03/07 01:23:05;;;;;;;4.57;4.27;;;0.00;99.90;;;;;;5082409;28;20277;-74
2022/03/07 01:25:31;;;;;;;4.40;4.07;;;0.00;99.90;;;;;;5086303;28;20657;-74
2022/03/07 01:27:56;;;;;;;5.40;4.30;;;0.00;99.90;;;;;;5080969;28;20189;-72
2022/03/07 01:30:22;;;;;;;4.47;4.10;;;0.00;99.90;;;;;;5088178;28;20203;-72
2022/03/07 01:32:48;;;;;;;5.00;4.17;;;-0.10;99.90;;;;;;5082701;28;20292;-72
2022/03/07 01:35:14;;;;;;;4.90;4.40;;;-0.10;99.90;;;;;;5089204;28;20688;-73
2022/03/07 01:37:39;;;;;;;4.77;4.20;;;-0.10;99.90;;;;;;5084776;28;20179;-73
2022/03/07 01:40:06;;;;;;;4.80;4.40;;;-0.10;99.90;;;;;;5088779;28;20205;-73
2022/03/07 01:42:32;;;;;;;5.03;4.57;;;-0.10;99.90;;;;;;5084544;28;20199;-73
2022/03/07 01:45:15;;;;;;;5.00;4.50;;;-0.10;99.90;;;;;;5092889;28;20185;-73
2022/03/07 01:47:41;;;;;;;4.53;4.23;;;-0.10;99.90;;;;;;5087778;28;20179;-73
2022/03/07 01:50:09;;;;;;;4.97;4.67;;;0.00;99.90;;;;;;5085737;28;20174;-73
2022/03/07 01:52:38;;;;;;;5.07;4.67;;;0.00;99.90;;;;;;5080921;28;20285;-73
2022/03/07 01:55:04;;;;;;;5.33;4.83;;;0.00;99.90;;;;;;5077818;28;20767;-73
2022/03/07 01:57:30;;;;;;;5.47;4.97;;;0.00;99.90;;;;;;5077808;28;20646;-73
2022/03/07 01:59:57;;;;;;;5.50;5.00;;;-0.10;99.90;;;;;;5080558;28;20179;-73
2022/03/07 02:02:24;;;;;;;5.43;4.93;;;-0.20;99.90;;;;;;5083561;28;20213;-73
2022/03/07 02:04:51;;;;;;;5.40;4.90;;;-0.20;99.90;;;;;;5083061;28;20186;-73
2022/03/07 02:07:16;;;;;;;7.03;5.00;;;-0.10;99.90;;;;;;5080674;28;20175;-73
2022/03/07 02:09:43;;;;;;;5.10;4.67;;;-0.20;99.90;;;;;;5084645;28;20602;-73
2022/03/07 02:12:09;;;;;;;5.37;4.90;;;-0.20;99.90;;;;;;5077865;28;20681;-73
2022/03/07 02:14:35;;;;;;;5.10;4.70;;;-0.20;99.90;;;;;;5081368;28;20302;-73
2022/03/07 02:17:00;;;;;;;5.20;4.80;;;-0.30;99.90;;;;;;5081282;28;20179;-73
2022/03/07 02:19:26;;;;;;;5.33;4.77;;;-0.30;99.90;;;;;;5078794;28;20664;-72
2022/03/07 02:22:00;;;;;;;5.30;4.80;;;-0.30;99.90;;;;;;5079024;28;20167;-73
2022/03/07 02:24:25;;;;;;;5.93;5.43;;;-0.30;99.90;;;;;;5084233;28;20647;-73
2022/03/07 02:26:59;;;;;;;5.83;5.33;;;-0.30;99.90;;;;;;5084270;28;20265;-73
2022/03/07 02:29:25;;;;;;;5.73;5.23;;;-0.40;99.90;;;;;;5087016;28;20658;-73
2022/03/07 02:31:50;;;;;;;6.20;5.60;;;-0.30;99.90;;;;;;5084165;28;20269;-73
2022/03/07 02:34:16;;;;;;;6.07;5.50;;;-0.30;99.90;;;;;;5104235;28;20183;-73
2022/03/07 02:36:41;;;;;;;6.30;5.70;;;-0.30;99.90;;;;;;5082276;28;20197;-73
2022/03/07 02:39:07;;;;;;;6.07;5.57;;;-0.40;99.90;;;;;;5081079;28;20186;-73
2022/03/07 02:41:33;;;;;;;8.60;6.10;;;-0.40;99.90;;;;;;5079121;28;20186;-74
2022/03/07 02:43:59;;;;;;;6.00;5.50;;;-0.50;99.90;;;;;;5087959;28;20174;-74
2022/03/07 02:46:24;;;;;;;6.77;5.70;;;-0.50;99.90;;;;;;5085704;28;20200;-73
2022/03/07 02:48:50;;;;;;;6.90;5.63;;;-0.60;99.90;;;;;;5086189;28;20182;-73
2022/03/07 02:51:16;;;;;;;5.93;5.43;;;-0.50;99.90;;;;;;5091409;28;20183;-73
2022/03/07 02:53:41;;;;;;;6.23;5.70;;;-0.50;99.90;;;;;;5083298;28;20318;-73
2022/03/07 02:56:07;;;;;;;6.60;5.90;;;-0.40;99.90;;;;;;5088207;28;20267;-74
2022/03/07 02:58:32;;;;;;;5.87;5.37;;;-0.40;99.90;;;;;;5083609;28;20269;-74
2022/03/07 03:00:58;;;;;;;6.93;6.33;;;-0.50;99.90;;;;;;5084618;28;20197;-74
2022/03/07 03:03:23;;;;;;;6.50;5.90;;;-0.50;99.90;;;;;;5081281;28;20206;-74
2022/03/07 03:05:54;;;;;;;6.70;6.10;;;-0.50;99.90;;;;;;5082400;28;20178;-74
2022/03/07 03:08:22;;;;;;;7.20;6.50;;;-0.50;99.90;;;;;;5087359;28;20182;-73
2022/03/07 03:10:53;;;;;;;6.03;5.53;;;-0.50;99.90;;;;;;5087611;28;20240;-73
2022/03/07 03:13:20;;;;;;;7.47;6.27;;;-0.60;99.90;;;;;;5084508;28;20498;-73
2022/03/07 03:15:46;;;;;;;6.50;5.80;;;-0.60;99.90;;;;;;5087864;28;20238;-73
2022/03/07 03:18:13;;;;;;;6.60;5.97;;;-0.50;99.90;;;;;;5080406;28;20170;-74
2022/03/07 03:20:39;;;;;;;6.30;5.63;;;-0.50;99.90;;;;;;5084081;28;20254;-74
2022/03/07 03:23:05;;;;;;;7.63;6.77;;;-0.50;99.90;;;;;;5085794;28;20199;-74
2022/03/07 03:25:31;;;;;;;6.47;5.90;;;-0.50;99.90;;;;;;5083487;28;20175;-74
2022/03/07 03:27:56;;;;;;;6.73;5.80;;;-0.60;99.90;;;;;;5085184;28;20202;-72
2022/03/07 03:30:22;;;;;;;7.50;6.53;;;-0.70;99.90;;;;;;5083942;28;20261;-73
2022/03/07 03:32:48;;;;;;;7.63;6.83;;;-0.70;99.90;;;;;;5090886;28;20213;-73
2022/03/07 03:35:13;;;;;;;7.13;6.50;;;-0.80;99.90;;;;;;5082097;28;20190;-72
2022/03/07 03:37:40;;;;;;;7.37;6.57;;;-0.80;99.90;;;;;;5078692;28;20182;-72
2022/03/07 03:40:07;;;;;;;8.07;7.27;;;-0.80;99.90;;;;;;5085633;28;20557;-72
2022/03/07 03:42:33;;;;;;;7.63;6.77;;;-0.90;99.90;;;;;;5087082;28;20214;-73
2022/03/07 03:44:59;;;;;;;8.17;6.63;;;-1.00;99.90;;;;;;5078782;28;20179;-73
2022/03/07 03:47:25;;;;;;;8.63;7.77;;;-1.10;99.90;;;;;;5084782;28;20571;-72
2022/03/07 03:49:50;;;;;;;8.10;7.30;;;-1.10;99.90;;;;;;5075650;28;20380;-73
2022/03/07 03:52:16;;;;;;;7.43;6.80;;;-1.10;99.90;;;;;;5083746;28;20205;-73
2022/03/07 03:54:42;;;;;;;8.53;7.73;;;-1.10;99.90;;;;;;5088698;28;20184;-73
2022/03/07 03:57:08;;;;;;;7.73;7.03;;;-1.10;99.90;;;;;;5087786;28;20181;-73
2022/03/07 03:59:34;;;;;;;8.47;7.50;;;-1.10;99.90;;;;;;5085078;28;20215;-73
2022/03/07 04:02:00;;;;;;;8.57;7.77;;;-1.20;99.90;;;;;;5083468;28;20211;-74
2022/03/07 04:04:26;;;;;;;9.93;8.93;;;-1.20;99.90;;;;;;5082922;28;20205;-73
2022/03/07 04:06:52;;;;;;;8.90;8.00;;;-1.20;99.90;;;;;;5090548;28;20190;-73
2022/03/07 04:09:20;;;;;;;9.07;8.17;;;-1.20;99.90;;;;;;5089820;28;20187;-73
2022/03/07 04:11:47;;;;;;;10.07;7.87;;;-1.10;99.90;;;;;;5084038;28;20193;-73
2022/03/07 04:14:14;;;;;;;9.43;8.53;;;-1.10;99.90;;;;;;5088743;28;20175;-73
2022/03/07 04:16:40;;;;;;;9.70;8.70;;;-1.10;99.90;;;;;;5081766;28;20171;-74
2022/03/07 04:19:07;;;;;;;9.67;8.67;;;-1.10;99.90;;;;;;5085455;28;20172;-74
2022/03/07 04:21:34;;;;;;;10.47;8.80;;;-1.10;99.90;;;;;;5082112;28;20257;-75
2022/03/07 04:24:00;;;;;;;8.77;7.97;;;-1.10;99.90;;;;;;5085677;28;20572;-76
2022/03/07 04:26:26;;;;;;;11.30;8.00;;;-1.10;99.90;;;;;;5085113;28;20190;-77
2022/03/07 04:28:52;;;;;;;11.83;8.73;;;-1.10;99.90;;;;;;5091301;28;20232;-76
2022/03/07 04:31:17;;;;;;;10.47;8.83;;;-1.10;99.90;;;;;;5083789;28;20922;-76
2022/03/07 04:33:43;;;;;;;10.20;9.07;;;-1.20;99.90;;;;;;5084017;28;20623;-75
2022/03/07 04:36:10;;;;;;;10.93;8.57;;;-1.10;99.90;;;;;;5083460;28;20207;-76
2022/03/07 04:38:36;;;;;;;9.43;8.60;;;-1.10;99.90;;;;;;5083948;28;20784;-75
2022/03/07 04:41:02;;;;;;;10.97;9.10;;;-1.10;99.90;;;;;;5085906;28;20171;-74
2022/03/07 04:43:28;;;;;;;9.90;8.57;;;-1.10;99.90;;;;;;5082977;28;20818;-74
2022/03/07 04:45:53;;;;;;;12.20;8.87;;;-1.10;99.90;;;;;;5080279;28;20190;-76
2022/03/07 04:48:20;;;;;;;11.10;9.13;;;-1.10;99.90;;;;;;5078493;28;20523;-75
2022/03/07 04:50:46;;;;;;;10.03;9.03;;;-1.10;99.90;;;;;;5080380;28;20194;-75
2022/03/07 04:53:12;;;;;;;11.87;9.70;;;-1.10;99.90;;;;;;5078200;28;20626;-75
2022/03/07 04:55:37;;;;;;;12.30;9.77;;;-1.10;99.90;;;;;;5078830;28;20389;-75
2022/03/07 04:58:03;;;;;;;11.97;9.90;;;-1.10;99.90;;;;;;5082379;28;20198;-76
2022/03/07 05:00:30;;;;;;;11.10;9.97;;;-1.10;99.90;;;;;;5082403;28;20185;-76
2022/03/07 05:02:56;;;;;;;10.37;9.27;;;-1.10;99.90;;;;;;5083608;28;20255;-76
2022/03/07 05:05:22;;;;;;;10.60;9.37;;;-1.00;99.90;;;;;;5077780;28;20203;-75
2022/03/07 05:07:51;;;;;;;10.13;9.03;;;-1.00;99.90;;;;;;5079507;28;20297;-75
2022/03/07 05:10:18;;;;;;;11.73;10.43;;;-1.10;99.90;;;;;;5080071;28;20187;-75
2022/03/07 05:12:44;;;;;;;10.23;9.17;;;-1.10;99.90;;;;;;5081495;28;20199;-76
2022/03/07 05:15:11;;;;;;;11.77;9.97;;;-1.10;99.90;;;;;;5075696;28;20229;-76
2022/03/07 05:17:45;;;;;;;10.40;9.30;;;-1.20;99.90;;;;;;5079624;28;20213;-76
2022/03/07 05:20:11;;;;;;;13.37;10.07;;;-1.20;99.90;;;;;;5078480;28;20193;-76
2022/03/07 05:22:41;;;;;;;12.93;9.63;;;-1.10;99.90;;;;;;5078157;28;20210;-75
2022/03/07 05:25:08;;;;;;;10.23;9.10;;;-1.10;99.90;;;;;;5080262;28;20195;-76
2022/03/07 05:27:34;;;;;;;10.37;9.37;;;-1.00;99.90;;;;;;5077943;28;20186;-76
2022/03/07 05:30:00;;;;;;;11.30;10.17;;;-1.10;99.90;;;;;;5076379;28;20505;-75
2022/03/07 05:32:25;;;;;;;10.93;9.77;;;-1.00;99.90;;;;;;5078564;28;20210;-76
2022/03/07 05:34:51;;;;;;;11.87;9.97;;;-1.00;99.90;;;;;;5078046;28;20615;-75
2022/03/07 05:37:16;;;;;;;11.00;9.67;;;-0.90;99.90;;;;;;5083876;28;20709;-75
2022/03/07 05:39:42;;;;;;;14.13;9.97;;;-0.90;99.90;;;;;;5079590;28;20268;-75
2022/03/07 05:42:08;;;;;;;13.37;10.77;;;-1.00;99.90;;;;;;5087306;28;20199;-75
2022/03/07 05:44:33;;;;;;;14.40;11.80;;;-1.00;99.90;;;;;;5089073;28;20186;-75
2022/03/07 05:46:59;;;;;;;13.50;10.93;;;-1.10;99.90;;;;;;5085522;28;20186;-74
2022/03/07 05:49:25;;;;;;;16.60;13.30;;;-1.10;99.90;;;;;;5087317;28;20585;-76
2022/03/07 05:51:50;;;;;;;13.93;11.90;;;-1.20;99.90;;;;;;5084883;28;20673;-76
2022/03/07 05:54:16;;;;;;;14.83;11.43;;;-1.20;99.90;;;;;;5088823;28;20210;-77
2022/03/07 05:56:42;;;;;;;15.20;12.80;;;-1.10;99.90;;;;;;5076763;28;20256;-77
2022/03/07 05:59:08;;;;;;;16.13;13.33;;;-1.10;99.90;;;;;;5073410;28;20649;-77
2022/03/07 06:01:33;;;;;;;16.20;13.57;;;-1.10;99.90;;;;;;5074956;28;20194;-76
2022/03/07 06:03:59;;;;;;;17.63;13.73;;;-1.10;99.90;;;;;;5076363;28;20702;-76
2022/03/07 06:06:25;;;;;;;16.23;13.67;;;-1.00;99.90;;;;;;5074337;28;20191;-76
2022/03/07 06:08:51;;;;;;;16.50;13.80;;;-1.00;99.90;;;;;;5080651;28;20198;-76
2022/03/07 06:11:16;;;;;;;15.47;13.77;;;-1.00;99.90;;;;;;5084834;28;20178;-77
2022/03/07 06:13:43;;;;;;;14.33;12.63;;;-0.90;99.90;;;;;;5078603;28;20207;-77
2022/03/07 06:16:08;;;;;;;16.40;14.17;;;-0.80;99.90;;;;;;5079408;28;20224;-78
2022/03/07 06:18:34;;;;;;;17.30;13.60;;;-0.70;99.90;;;;;;5087344;28;20270;-79
2022/03/07 06:21:00;;;;;;;18.23;14.30;;;-0.60;99.90;;;;;;5088208;28;20617;-78
2022/03/07 06:23:25;;;;;;;14.80;12.97;;;-0.60;99.90;;;;;;5081090;28;20232;-80
2022/03/07 06:25:51;;;;;;;18.63;14.40;;;-0.50;99.90;;;;;;5086818;28;20253;-79
2022/03/07 06:28:17;;;;;;;17.20;13.13;;;-0.40;99.90;;;;;;5083388;28;20226;-75
2022/03/07 06:30:49;;;;;;;20.17;14.57;;;-0.20;99.90;;;;;;5083025;28;20218;-75
2022/03/07 06:33:17;;;;;;;16.30;13.13;;;-0.20;99.90;;;;;;5083185;28;20218;-75
2022/03/07 06:35:43;;;;;;;17.67;14.47;;;-0.10;99.90;;;;;;5086910;28;20206;-74
2022/03/07 06:38:09;;;;;;;16.20;13.40;;;0.00;99.90;;;;;;5080444;28;20553;-74
2022/03/07 06:40:35;;;;;;;18.67;14.47;;;0.00;99.90;;;;;;5084812;28;20182;-75
2022/03/07 06:43:01;;;;;;;18.77;14.67;;;0.00;99.90;;;;;;5085622;28;20251;-74
2022/03/07 06:45:27;;;;;;;17.47;15.03;;;0.10;99.90;;;;;;5079912;28;20194;-73
2022/03/07 06:47:53;;;;;;;15.00;13.40;;;0.00;99.90;;;;;;5080491;28;20183;-75
2022/03/07 06:50:19;;;;;;;17.17;14.10;;;0.10;99.90;;;;;;5076570;28;20193;-76
2022/03/07 06:52:45;;;;;;;18.07;15.20;;;0.20;99.90;;;;;;5076551;28;20211;-73
2022/03/07 06:55:11;;;;;;;20.00;15.60;;;0.20;99.90;;;;;;5086528;28;20251;-75
2022/03/07 06:57:38;;;;;;;17.27;14.00;;;0.10;99.90;;;;;;5078233;28;20223;-72
2022/03/07 07:00:06;;;;;;;17.07;14.67;;;0.10;99.90;;;;;;5077445;28;20187;-75
2022/03/07 07:02:32;;;;;;;17.07;14.73;;;0.20;99.90;;;;;;5084547;28;20228;-74
2022/03/07 07:04:58;;;;;;;21.73;15.43;;;0.20;99.90;;;;;;5081394;28;20649;-75
2022/03/07 07:07:24;;;;;;;21.23;15.10;;;0.30;99.90;;;;;;5079543;28;20183;-76
2022/03/07 07:09:50;;;;;;;16.13;14.43;;;0.30;99.90;;;;;;5087671;28;20622;-75
2022/03/07 07:12:16;;;;;;;17.37;14.73;;;0.50;99.90;;;;;;5076139;28;20207;-76
2022/03/07 07:14:41;;;;;;;18.90;15.23;;;0.70;99.90;;;;;;5082864;28;20211;-75
2022/03/07 07:17:07;;;;;;;17.30;15.17;;;0.70;99.90;;;;;;5080359;28;20206;-75
2022/03/07 07:19:32;;;;;;;15.87;14.07;;;0.80;99.90;;;;;;5075883;28;20184;-75
2022/03/07 07:21:58;;;;;;;17.73;15.10;;;1.00;99.90;;;;;;5080539;28;20195;-75
2022/03/07 07:24:24;;;;;;;16.20;14.43;;;1.00;99.90;;;;;;5082355;28;20961;-75
2022/03/07 07:26:49;;;;;;;16.07;13.90;;;1.30;99.90;;;;;;5082873;28;20191;-75
2022/03/07 07:29:15;;;;;;;19.20;14.77;;;1.40;99.90;;;;;;5079328;28;20270;-75
2022/03/07 07:31:40;;;;;;;16.90;14.73;;;1.50;99.90;;;;;;5083695;28;20186;-74
2022/03/07 07:34:06;;;;;;;18.03;14.30;;;1.60;99.90;;;;;;5078373;28;20186;-73
2022/03/07 07:36:31;;;;;;;14.73;12.70;;;1.70;99.90;;;;;;5084554;28;20580;-75
2022/03/07 07:38:57;;;;;;;14.53;13.20;;;1.60;99.90;;;;;;5081931;28;20653;-75
2022/03/07 07:41:23;;;;;;;16.17;14.10;;;1.80;99.90;;;;;;5084368;28;20187;-76
2022/03/07 07:43:51;;;;;;;16.43;13.83;;;1.80;99.90;;;;;;5097637;28;20217;-75
2022/03/07 07:46:19;;;;;;;15.97;13.53;;;1.80;99.90;;;;;;5086007;28;20535;-72
2022/03/07 07:48:45;;;;;;;16.20;14.20;;;1.80;99.90;;;;;;5087215;28;20269;-73
2022/03/07 07:51:10;;;;;;;17.90;13.17;;;1.90;99.90;;;;;;5081437;28;20228;-73
2022/03/07 07:53:36;;;;;;;14.73;13.23;;;1.90;99.90;;;;;;5091276;28;20635;-72
2022/03/07 07:56:03;;;;;;;14.93;13.17;;;2.20;99.90;;;;;;5086810;28;20198;-70
2022/03/07 07:58:29;;;;;;;14.17;12.77;;;2.30;99.50;;;;;;5084717;28;20250;-71
2022/03/07 08:00:54;;;;;;;14.30;12.80;;;2.40;98.30;;;;;;5081059;28;20174;-71
2022/03/07 08:03:20;;;;;;;13.43;12.23;;;2.50;96.70;;;;;;5081209;28;20215;-72
2022/03/07 08:05:48;;;;;;;13.93;12.43;;;2.50;96.50;;;;;;5083293;28;20183;-76
2022/03/07 08:08:15;;;;;;;14.97;13.43;;;2.60;94.40;;;;;;5081151;28;20183;-74
2022/03/07 08:10:41;;;;;;;13.43;12.13;;;2.80;94.60;;;;;;5091283;28;20187;-75
2022/03/07 08:13:06;;;;;;;14.87;13.37;;;2.70;93.30;;;;;;5085246;28;20595;-75
2022/03/07 08:15:32;;;;;;;14.17;12.17;;;2.80;93.40;;;;;;5082132;28;20203;-74
2022/03/07 08:17:58;;;;;;;12.53;11.23;;;3.00;93.20;;;;;;5085933;28;20577;-74
2022/03/07 08:20:24;;;;;;;14.53;12.77;;;3.10;90.80;;;;;;5085518;28;20264;-76
2022/03/07 08:22:50;;;;;;;13.70;11.87;;;3.20;90.50;;;;;;5088035;28;20199;-76
2022/03/07 08:25:17;;;;;;;13.93;12.10;;;3.10;93.90;;;;;;5093004;28;20182;-74
2022/03/07 08:27:43;;;;;;;13.77;12.23;;;3.20;90.50;;;;;;5086392;28;20281;-74
2022/03/07 08:30:12;;;;;;;14.63;13.07;;;3.20;87.10;;;;;;5082342;28;20270;-74
2022/03/07 08:32:40;;;;;;;12.37;11.03;;;3.10;86.80;;;;;;5087776;28;20226;-76
2022/03/07 08:35:06;;;;;;;12.17;10.77;;;3.20;86.30;;;;;;5087432;28;20328;-74
2022/03/07 08:37:32;;;;;;;11.93;10.60;;;3.20;84.20;;;;;;5083881;28;20183;-74
2022/03/07 08:39:58;;;;;;;12.87;11.67;;;3.20;82.10;;;;;;5087789;28;20262;-74
2022/03/07 08:42:24;;;;;;;13.10;11.90;;;3.20;81.00;;;;;;5084717;28;20942;-74
2022/03/07 08:44:51;;;;;;;12.73;11.43;;;3.00;79.70;;;;;;5086944;28;20187;-73
2022/03/07 08:47:16;;;;;;;13.33;12.00;;;3.00;79.90;;;;;;5080487;28;20179;-73
2022/03/07 08:49:42;;;;;;;13.37;12.00;;;2.90;79.60;;;;;;5084611;28;20543;-73
2022/03/07 08:52:08;;;;;;;13.83;12.27;;;2.90;78.80;;;;;;5080457;28;20207;-72
2022/03/07 08:54:34;;;;;;;18.17;11.50;;;3.00;78.20;;;;;;5081347;28;20191;-70
2022/03/07 08:57:00;;;;;;;13.97;11.73;;;3.10;78.50;;;;;;5081187;28;20187;-72
2022/03/07 08:59:27;;;;;;;13.83;11.37;;;3.10;79.20;;;;;;5075720;28;20198;-72
2022/03/07 09:01:54;;;;;;;13.63;12.23;;;3.20;79.80;;;;;;5077797;28;20182;-71
2022/03/07 09:04:20;;;;;;;15.57;12.87;;;3.30;78.70;;;;;;5073594;28;20657;-72
2022/03/07 09:06:46;;;;;;;13.73;12.33;;;3.40;78.70;;;;;;5076733;28;20194;-72
2022/03/07 09:09:12;;;;;;;13.67;12.27;;;3.20;78.80;;;;;;5083221;28;20175;-71
2022/03/07 09:11:38;;;;;;;14.73;12.63;;;3.10;78.20;;;;;;5080865;28;20190;-74
2022/03/07 09:14:04;;;;;;;13.47;11.87;;;2.90;79.70;;;;;;5090012;28;20183;-76
2022/03/07 09:16:30;;;;;;;14.20;12.07;;;2.70;81.40;;;;;;5083043;28;20210;-75
2022/03/07 09:18:55;;;;;;;12.73;11.43;;;2.60;83.40;;;;;;5080072;28;20183;-75
2022/03/07 09:21:21;;;;;;;13.37;12.07;;;2.60;82.70;;;;;;5080192;28;20174;-74
2022/03/07 09:23:47;;;;;;;14.13;11.83;;;2.60;83.20;;;;;;5087065;28;20206;-78
2022/03/07 09:26:13;;;;;;;16.60;12.50;;;2.60;83.30;;;;;;5081923;28;20183;-74
2022/03/07 09:28:40;;;;;;;14.27;12.70;;;2.70;85.40;;;;;;5084931;28;20183;-74
2022/03/07 09:31:08;;;;;;;15.53;13.93;;;2.60;85.40;;;;;;5080801;28;20277;-77
2022/03/07 09:33:34;;;;;;;17.00;12.87;;;2.60;86.70;;;;;;5079612;28;20322;-78
2022/03/07 09:35:59;;;;;;;14.57;12.80;;;2.50;86.80;;;;;;5079092;28;20298;-78
2022/03/07 09:38:27;;;;;;;15.17;13.67;;;2.50;87.30;;;;;;5083591;28;20752;-78
2022/03/07 09:40:54;;;;;;;15.90;12.93;;;2.50;86.30;;;;;;5079825;28;20225;-75
2022/03/07 09:43:20;;;;;;;14.30;12.80;;;2.50;87.50;;;;;;5081720;28;20248;-77
2022/03/07 09:45:46;;;;;;;14.87;13.27;;;2.50;87.60;;;;;;5085649;28;20178;-77
2022/03/07 09:48:12;;;;;;;15.67;12.67;;;2.60;89.20;;;;;;5089749;28;20181;-73
2022/03/07 09:50:40;;;;;;;12.53;11.27;;;2.80;86.30;;;;;;5089358;28;20544;-77
2022/03/07 09:53:06;;;;;;;13.47;12.20;;;3.00;83.90;;;;;;5081831;28;20206;-79
2022/03/07 09:55:32;;;;;;;12.83;11.40;;;3.20;80.20;;;;;;5080783;28;20209;-76
2022/03/07 09:57:58;;;;;;;12.53;11.27;;;3.50;78.20;;;;;;5087219;28;20175;-75
2022/03/07 10:00:24;;;;;;;11.87;10.67;;;3.80;76.00;;;;;;5082261;28;20167;-74
2022/03/07 10:02:59;;;;;;;12.83;10.30;;;4.20;74.70;;;;;;5081880;28;20546;-74
2022/03/07 10:05:27;;;;;;;11.97;10.63;;;4.40;73.90;;;;;;5082565;28;20182;-74
2022/03/07 10:07:53;;;;;;;12.17;10.97;;;4.60;71.30;;;;;;5081606;28;20166;-74
2022/03/07 10:10:18;;;;;;;12.17;11.07;;;4.80;70.40;;;;;;5077328;28;20182;-74
2022/03/07 10:12:49;;;;;;;12.90;11.17;;;4.60;69.80;;;;;;5078476;28;20203;-75
2022/03/07 10:15:17;;;;;;;11.33;10.13;;;4.60;68.40;;;;;;5079131;28;20784;-75
2022/03/07 10:17:54;;;;;;;10.50;9.47;;;4.90;67.00;;;;;;5076078;28;20200;-75
2022/03/07 10:20:23;;;;;;;10.77;9.67;;;5.10;64.20;;;;;;5075397;28;20183;-76
2022/03/07 10:22:51;;;;;;;10.47;9.57;;;6.70;62.50;;;;;;5074903;28;20190;-75
2022/03/07 10:25:25;;;;;;;10.52;9.43;;;9.80;56.00;;;;;;5076633;28;20296;-75
2022/03/07 10:27:51;;;;;;;9.98;9.07;;;11.30;48.90;;;;;;5074511;28;20225;-77
2022/03/07 10:30:21;;;;;;;9.32;8.48;;;13.20;46.10;;;;;;5076927;28;20175;-78
2022/03/07 10:33:00;;;;;;;10.10;9.20;;;14.90;41.00;;;;;;5083374;28;20211;-77
2022/03/07 10:35:30;;;;;;;9.93;8.93;;;13.60;39.00;;;;;;5079406;28;20214;-76
2022/03/07 10:38:04;;;;;;;10.13;9.13;;;12.20;39.30;;;;;;5082220;28;20239;-75
2022/03/07 10:40:32;;;;;;;10.15;9.13;;;10.90;42.60;;;;;;5081811;28;20328;-75
2022/03/07 10:43:00;;;;;;;10.07;9.18;;;12.20;41.70;;;;;;5085424;28;20190;-76
2022/03/07 10:45:28;;;;;;;9.70;8.80;;;14.50;38.30;;;;;;5078828;28;20187;-76
2022/03/07 10:47:56;;;;;;;9.55;8.85;;;16.20;37.90;;;;;;5083478;28;20237;-76
2022/03/07 10:50:24;;;;;;;7.50;6.90;;;18.10;35.90;;;;;;5090150;28;20197;-76
2022/03/07 10:52:52;;;;;;;7.95;7.15;;;19.30;34.40;;;;;;5088266;28;20206;-75
2022/03/07 10:55:26;;;;;;;7.68;7.05;;;20.50;33.00;;;;;;5076321;28;20202;-75
2022/03/07 10:57:52;;;;;;;9.63;7.82;;;19.00;32.10;;;;;;5084516;28;20178;-75
2022/03/07 11:00:18;;;;;;;8.10;7.40;;;17.10;32.90;;;;;;5083734;28;20171;-76
2022/03/07 11:02:46;;;;;;;7.78;7.18;;;16.30;34.60;;;;;;5081290;28;20198;-76
2022/03/07 11:05:13;;;;;;;8.63;6.65;;;16.50;35.60;;;;;;5081181;28;20171;-76
2022/03/07 11:07:42;;;;;;;8.98;7.47;;;17.30;33.50;;;;;;5078241;28;20194;-76
2022/03/07 11:10:09;;;;;;;8.18;7.38;;;16.90;33.00;;;;;;5086749;28;20671;-77
2022/03/07 11:12:35;;;;;;;8.60;7.80;;;16.70;33.00;;;;;;5083597;28;20626;-77
2022/03/07 11:15:08;;;;;;;8.27;7.53;;;16.00;33.00;;;;;;5088040;28;20204;-77
2022/03/07 11:17:39;;;;;;;7.75;7.10;;;16.60;33.40;;;;;;5079404;28;20209;-76
2022/03/07 11:20:06;;;;;;;8.48;7.80;;;17.10;33.20;;;;;;5083815;28;20182;-77
2022/03/07 11:22:32;;;;;;;8.10;7.50;;;17.50;32.70;;;;;;5080943;28;20208;-76
2022/03/07 11:24:59;;;;;;;8.02;7.32;;;16.80;32.60;;;;;;5078971;28;20191;-78
2022/03/07 11:27:25;;;;;;;7.55;6.85;;;16.40;33.50;;;;;;5081626;28;20178;-80
2022/03/07 11:29:50;;;;;;;7.53;6.82;;;17.20;32.90;;;;;;5079971;28;20335;-77
2022/03/07 11:32:18;;;;;;;6.95;6.45;;;18.90;33.20;;;;;;5084213;28;21860;-79
2022/03/07 11:34:55;;;;;;;6.38;5.78;;;20.50;31.30;;;;;;5081517;28;20291;-77
2022/03/07 11:37:22;;;;;;;5.68;5.28;;;21.80;29.70;;;;;;5081397;28;20174;-78
2022/03/07 11:39:49;;;;;;;6.25;5.78;;;20.90;29.70;;;;;;5078536;28;20269;-78
2022/03/07 11:42:17;;;;;;;5.50;5.10;;;21.00;30.00;;;;;;5076748;28;20247;-78
2022/03/07 11:44:44;;;;;;;5.22;4.82;;;20.60;30.10;;;;;;5079863;28;20179;-77
2022/03/07 11:47:12;;;;;;;6.15;5.55;;;21.60;30.40;;;;;;5077655;28;20312;-77
2022/03/07 11:49:39;;;;;;;5.65;5.22;;;22.80;30.00;;;;;;5077195;28;20236;-78
2022/03/07 11:52:13;;;;;;;5.25;4.80;;;24.20;28.80;;;;;;5090347;28;20206;-78
2022/03/07 11:54:59;;;;;;;5.55;5.05;;;24.70;28.20;;;;;;5077145;28;20195;-77
2022/03/07 11:57:57;;;;;;;6.05;5.18;;;25.40;28.00;;;;;;5081849;28;20193;-81
2022/03/07 12:00:27;;;;;;;5.38;4.97;;;25.80;27.50;;;;;;5080558;28;20645;-78
2022/03/07 12:02:56;;;;;;;4.63;4.32;;;26.40;27.90;;;;;;5085550;28;20211;-78
2022/03/07 12:05:25;;;;;;;5.75;5.25;;;26.20;26.90;;;;;;5082782;28;20634;-79
2022/03/07 12:07:52;;;;;;;5.20;4.82;;;24.90;27.20;;;;;;5085541;28;20268;-79
2022/03/07 12:10:18;;;;;;;6.00;5.40;;;24.30;27.70;;;;;;5086425;28;20170;-79
2022/03/07 12:12:44;;;;;;;5.20;4.80;;;23.70;27.80;;;;;;5086435;28;20234;-78
2022/03/07 12:15:12;;;;;;;5.40;5.00;;;25.00;28.20;;;;;;5078144;28;20585;-77
2022/03/07 12:17:38;;;;;;;5.43;5.03;;;24.50;27.70;;;;;;5086499;28;20171;-77
2022/03/07 12:20:04;;;;;;;5.28;4.88;;;25.20;28.20;;;;;;5082320;28;20175;-77
2022/03/07 12:22:32;;;;;;;4.82;4.53;;;26.10;27.00;;;;;;5092152;28;20199;-79
2022/03/07 12:24:59;;;;;;;5.13;4.72;;;25.90;27.00;;;;;;5083962;28;20213;-77
2022/03/07 12:27:25;;;;;;;5.55;5.15;;;25.40;27.80;;;;;;5075144;28;20229;-74
2022/03/07 12:29:51;;;;;;;5.43;5.03;;;26.40;26.70;;;;;;5084871;28;20549;-74
2022/03/07 12:32:18;;;;;;;5.18;4.78;;;25.50;26.50;;;;;;5086713;28;20246;-75
2022/03/07 12:34:45;;;;;;;5.35;4.90;;;24.70;27.10;;;;;;5081984;28;20188;-75
2022/03/07 12:37:20;;;;;;;4.82;4.45;;;25.00;27.60;;;;;;5087319;28;20202;-74
2022/03/07 12:39:54;;;;;;;5.13;4.80;;;24.30;27.40;;;;;;5090036;28;20189;-75